Resolute — WTW2234 — position and weather

sailwx.info

Track history (hours):
 
Tides and Currents Weather Stations Pressure Air Temp Water Temp Dewpoint Dewpoint Depression Visibility Wind Speed Wind Dir Waves Ship Positions

Resolute

Owner: Providence Steamboat Co., PROVIDENCE, RI. More information available from US FCC via Universal Licensing System and Coast Guard Vessel Documentation Center.

Last reported at 2017-Jan-13 23:33 UTC. Time now 2017-Jan-21 13:24 UTC.
Position N 40°38' W 074°10'.

Length 30 m; draft 4 m.

Type: Tug. MMSI: 367091630.

Date/timePositionNaut miles runAvg speedWind from/ knotsBaromVisibWave heightAir tempDewpointWater temp
2017-Jan-13 23:33N 40°38' W 074°10'0 0.0
2017-Jan-13 22:33N 40°38' W 074°10'0 0.0
2017-Jan-13 21:33N 40°38' W 074°10'0 0.0
2017-Jan-13 20:33N 40°38' W 074°10'0 0.0
2017-Jan-13 19:33N 40°38' W 074°10'0 0.0
2017-Jan-13 18:33N 40°38' W 074°10'0 0.0
2017-Jan-13 17:33N 40°38' W 074°10'6 5.6
2017-Jan-13 16:32N 40°33' W 074°13'2 1.3
2017-Jan-13 15:05N 40°32' W 074°15'3 4.3
2017-Jan-13 14:18N 40°35' W 074°13'4 5.5
2017-Jan-13 13:32N 40°38' W 074°10'0 0.0
2017-Jan-13 12:33N 40°38' W 074°10'1 1.2
2017-Jan-13 11:33N 40°39' W 074°09'4 3.6
2017-Jan-13 10:33N 40°37' W 074°12'2 0.2
2017-Jan-12 22:33N 40°38' W 074°10'0 0.0
2017-Jan-12 21:33N 40°38' W 074°10'0 0.0
2017-Jan-12 20:33N 40°38' W 074°10'0 0.0
2017-Jan-12 19:32N 40°38' W 074°10'4 4.0
2017-Jan-12 18:33N 40°39' W 074°05'7 7.1
2017-Jan-12 17:33N 40°44' W 073°58'7 7.2
2017-Jan-12 16:33N 40°48' W 073°50'1 0.5
2017-Jan-12 15:33N 40°48' W 073°49'5 4.5
2017-Jan-12 14:33N 40°47' W 073°55'4 4.0
2017-Jan-12 13:33N 40°44' W 073°58'2 1.6
2017-Jan-12 12:33N 40°42' W 073°58'3 3.2
2017-Jan-12 11:33N 40°41' W 074°02'6 6.3
2017-Jan-12 10:33N 40°38' W 074°10'0 0.0
2017-Jan-12 09:33N 40°38' W 074°10'0 0.0
2017-Jan-12 08:33N 40°38' W 074°10'0 0.0
2017-Jan-12 07:32N 40°38' W 074°10'0 0.0
2017-Jan-12 06:33N 40°38' W 074°10'0 0.0
2017-Jan-12 05:33N 40°38' W 074°10'5 4.9
2017-Jan-12 04:33N 40°38' W 074°03'3 3.4
2017-Jan-12 03:33N 40°39' W 074°08'2 2.2
2017-Jan-12 02:33N 40°41' W 074°09'0 0.4
2017-Jan-12 01:33N 40°41' W 074°09'2 2.5
2017-Jan-12 00:33N 40°38' W 074°10'0 0.0
2017-Jan-11 23:33N 40°38' W 074°10'0 0.0
2017-Jan-11 22:33N 40°38' W 074°10'0 0.0
2017-Jan-11 21:33N 40°38' W 074°10'1 1.5
2017-Jan-11 20:33N 40°38' W 074°12'3 1.4
2017-Jan-11 18:31N 40°35' W 074°12'4 3.6
2017-Jan-11 17:33N 40°38' W 074°10'0 0.0
2017-Jan-11 16:33N 40°38' W 074°10'0 0.0
2017-Jan-11 15:33N 40°38' W 074°10'0 0.0
2017-Jan-11 14:33N 40°38' W 074°10'0 0.0
2017-Jan-11 13:33N 40°38' W 074°10'0 0.0
2017-Jan-11 12:33N 40°38' W 074°10'0 0.0
2017-Jan-11 11:33N 40°38' W 074°10'0 0.0
2017-Jan-11 10:33N 40°38' W 074°10'0 0.0
2017-Jan-11 09:33N 40°38' W 074°10'0 0.0
2017-Jan-11 08:33N 40°38' W 074°10'0 0.0
2017-Jan-11 07:33N 40°38' W 074°10'0 0.0
2017-Jan-11 06:33N 40°38' W 074°10'0 0.0
2017-Jan-11 05:33N 40°38' W 074°10'0 0.0
2017-Jan-11 04:33N 40°38' W 074°10'0 0.0
2017-Jan-11 03:33N 40°38' W 074°10'0 0.0
2017-Jan-11 02:33N 40°38' W 074°10'1 1.2
2017-Jan-11 01:33N 40°39' W 074°11'6 5.1
2017-Jan-11 00:29N 40°34' W 074°14'1 0.9
2017-Jan-10 23:33N 40°33' W 074°15'0 0.0
2017-Jan-10 21:32N 40°33' W 074°15'0 0.0
2017-Jan-10 20:33N 40°33' W 074°15'0 0.4
2017-Jan-10 19:32N 40°33' W 074°15'0 0.3
2017-Jan-10 18:32N 40°33' W 074°15'0 0.1
2017-Jan-10 17:32N 40°33' W 074°15'0 0.0
2017-Jan-10 16:33N 40°33' W 074°15'0 0.0
2017-Jan-10 15:33N 40°33' W 074°15'2 0.2
2017-Jan-10 06:17N 40°31' W 074°15'5 2.6
2017-Jan-10 04:26N 40°35' W 074°12'0 0.2
2017-Jan-10 03:23N 40°35' W 074°12'0 0.0
2017-Jan-10 01:08N 40°35' W 074°12'1 2.5
2017-Jan-10 00:33N 40°37' W 074°12'3 3.1
2017-Jan-09 23:33N 40°39' W 074°09'2 1.7
2017-Jan-09 22:33N 40°39' W 074°07'8 5.8
2017-Jan-09 21:06N 40°33' W 074°15'3 5.5
2017-Jan-09 20:33N 40°35' W 074°13'5 5.1
2017-Jan-09 19:33N 40°39' W 074°08'2 1.7
2017-Jan-09 18:33N 40°39' W 074°06'1 0.7
2017-Jan-09 17:34N 40°39' W 074°07'3 2.5
2017-Jan-09 16:33N 40°38' W 074°10'0 0.0
2017-Jan-09 15:33N 40°38' W 074°10'0 0.0
2017-Jan-09 14:33N 40°38' W 074°10'1 1.1
2017-Jan-09 13:33N 40°39' W 074°09'1 1.3
2017-Jan-09 12:33N 40°41' W 074°09'1 1.0
2017-Jan-09 11:33N 40°40' W 074°09'1 1.2
2017-Jan-09 10:34N 40°38' W 074°09'1 0.8
2017-Jan-09 09:33N 40°38' W 074°10'0 0.0
2017-Jan-09 08:33N 40°38' W 074°10'0 0.0
2017-Jan-09 07:33N 40°38' W 074°10'0 0.0
2017-Jan-09 06:33N 40°38' W 074°10'0 0.0
2017-Jan-09 05:33N 40°38' W 074°10'0 0.0
2017-Jan-09 04:33N 40°38' W 074°10'0 0.0
2017-Jan-09 03:33N 40°38' W 074°10'0 0.0
2017-Jan-09 02:33N 40°38' W 074°10'0 0.0
2017-Jan-09 01:33N 40°38' W 074°10'0 0.0
2017-Jan-09 00:33N 40°38' W 074°10'0 0.0
2017-Jan-08 23:31N 40°38' W 074°10'0 0.0
2017-Jan-08 22:31N 40°38' W 074°10'0 0.0
2017-Jan-08 21:31N 40°38' W 074°10'0 0.0
2017-Jan-08 20:31N 40°38' W 074°10'0 0.0
2017-Jan-08 19:28N 40°38' W 074°10'0 0.0
2017-Jan-08 18:31N 40°38' W 074°10'0 0.0
2017-Jan-08 17:31N 40°38' W 074°10'0 0.0
2017-Jan-08 16:31N 40°38' W 074°10'0 0.0
2017-Jan-08 15:31N 40°38' W 074°10'0 0.0
2017-Jan-08 14:28N 40°38' W 074°10'0 0.0
2017-Jan-08 13:31N 40°38' W 074°10'0 0.0
2017-Jan-08 12:31N 40°38' W 074°10'0 0.0
2017-Jan-08 11:31N 40°38' W 074°10'0 0.0
2017-Jan-08 10:25N 40°38' W 074°10'0 0.0
2017-Jan-08 09:28N 40°38' W 074°10'0 0.0
2017-Jan-08 06:31N 40°38' W 074°10'0 0.0
2017-Jan-08 05:31N 40°38' W 074°10'0 0.0
2017-Jan-08 04:31N 40°38' W 074°10'0 0.0
2017-Jan-08 03:31N 40°38' W 074°10'0 0.0
2017-Jan-08 02:31N 40°38' W 074°10'0 0.0
2017-Jan-08 01:31N 40°38' W 074°10'0 0.0
2017-Jan-08 00:31N 40°38' W 074°10'0 0.0
2017-Jan-07 23:31N 40°38' W 074°10'0 0.0
2017-Jan-07 22:31N 40°38' W 074°10'0 0.0
2017-Jan-07 21:31N 40°38' W 074°10'0 0.0
2017-Jan-07 20:31N 40°38' W 074°10'0 0.0
2017-Jan-07 19:31N 40°38' W 074°10'4 4.1
2017-Jan-07 18:34N 40°39' W 074°05'1 1.0
2017-Jan-07 17:32N 40°40' W 074°04'0 0.0
2017-Jan-07 16:32N 40°40' W 074°04'2 2.4
2017-Jan-07 15:33N 40°38' W 074°04'0 0.0
2017-Jan-07 14:32N 40°38' W 074°04'2 1.7
2017-Jan-07 13:33N 40°39' W 074°05'3 3.2
2017-Jan-07 12:31N 40°38' W 074°10'2 1.8
2017-Jan-07 11:33N 40°40' W 074°08'3 3.1
2017-Jan-07 10:33N 40°39' W 074°05'4 3.8
2017-Jan-07 09:28N 40°38' W 074°10'0 0.0
2017-Jan-07 08:31N 40°38' W 074°10'0 0.0
2017-Jan-07 07:28N 40°38' W 074°10'0 0.0
2017-Jan-07 06:25N 40°38' W 074°10'0 0.0
2017-Jan-07 05:28N 40°38' W 074°10'0 0.0
2017-Jan-07 04:25N 40°38' W 074°10'0 0.0
2017-Jan-07 03:28N 40°38' W 074°10'0 0.0
2017-Jan-07 02:28N 40°38' W 074°10'0 0.0
2017-Jan-07 01:28N 40°38' W 074°10'0 0.0
2017-Jan-07 00:28N 40°38' W 074°10'0 0.0
2017-Jan-06 23:28N 40°38' W 074°10'0 0.0
2017-Jan-06 22:28N 40°38' W 074°10'0 0.0
2017-Jan-06 21:28N 40°38' W 074°10'0 0.0
2017-Jan-06 20:31N 40°38' W 074°10'0 0.0
2017-Jan-06 19:31N 40°38' W 074°10'0 0.0
2017-Jan-06 18:28N 40°38' W 074°10'0 0.0
2017-Jan-06 17:31N 40°38' W 074°10'0 0.0
2017-Jan-06 16:28N 40°38' W 074°10'0 0.0
2017-Jan-06 15:28N 40°38' W 074°10'0 0.0
2017-Jan-06 14:31N 40°38' W 074°10'0 0.0
2017-Jan-06 13:31N 40°38' W 074°10'0 0.0
2017-Jan-06 12:31N 40°38' W 074°10'0 0.0
2017-Jan-06 11:31N 40°38' W 074°10'0 0.0
2017-Jan-06 10:28N 40°38' W 074°10'0 0.0
2017-Jan-06 09:31N 40°38' W 074°10'0 0.0
2017-Jan-06 08:31N 40°38' W 074°10'0 0.0
2017-Jan-06 07:31N 40°38' W 074°10'0 0.0
2017-Jan-06 06:31N 40°38' W 074°10'0 0.0
2017-Jan-06 05:31N 40°38' W 074°10'0 0.0
2017-Jan-06 04:28N 40°38' W 074°10'0 0.0
2017-Jan-06 03:31N 40°38' W 074°10'0 0.0
2017-Jan-06 02:31N 40°38' W 074°10'0 0.0
2017-Jan-06 01:31N 40°38' W 074°10'0 0.0
2017-Jan-06 00:31N 40°38' W 074°10'0 0.0
2017-Jan-05 23:31N 40°38' W 074°10'0 0.0
2017-Jan-05 22:31N 40°38' W 074°10'0 0.0
2017-Jan-05 21:28N 40°38' W 074°10'0 0.0
2017-Jan-05 20:31N 40°38' W 074°10'0 0.0
2017-Jan-05 19:16N 40°38' W 074°10'0 0.0
2017-Jan-05 18:28N 40°38' W 074°10'0 0.0
2017-Jan-05 17:31N 40°38' W 074°10'0 0.0
2017-Jan-05 16:28N 40°38' W 074°10'0 0.0
2017-Jan-05 15:31N 40°38' W 074°10'0 0.0
2017-Jan-05 14:28N 40°38' W 074°10'0 0.0
2017-Jan-05 13:28N 40°38' W 074°10'0 0.0
2017-Jan-05 12:31N 40°38' W 074°10'0 0.0
2017-Jan-05 11:31N 40°38' W 074°10'0 0.0
2017-Jan-05 10:31N 40°38' W 074°10'0 0.0
2017-Jan-05 09:31N 40°38' W 074°10'0 0.0
2017-Jan-05 08:31N 40°38' W 074°10'0 0.0
2017-Jan-05 07:31N 40°38' W 074°10'0 0.0
2017-Jan-05 06:31N 40°38' W 074°10'0 0.0
2017-Jan-05 05:31N 40°38' W 074°10'0 0.0
2017-Jan-05 04:31N 40°38' W 074°10'0 0.0
2017-Jan-05 03:31N 40°38' W 074°10'0 0.0
2017-Jan-05 02:31N 40°38' W 074°10'0 0.0
2017-Jan-05 01:31N 40°38' W 074°10'0 0.0
2017-Jan-05 00:28N 40°38' W 074°10'0 0.0
2017-Jan-04 23:31N 40°38' W 074°10'0 0.0
2017-Jan-04 22:31N 40°38' W 074°10'0 0.0
2017-Jan-04 21:31N 40°38' W 074°10'0 0.0
2017-Jan-04 20:31N 40°38' W 074°10'0 0.0
2017-Jan-04 19:28N 40°38' W 074°10'0 0.0
2017-Jan-04 18:31N 40°38' W 074°10'0 0.0
2017-Jan-04 17:28N 40°38' W 074°10'0 0.0
2017-Jan-04 16:28N 40°38' W 074°10'0 0.0
2017-Jan-04 15:28N 40°38' W 074°10'0 0.0
2017-Jan-04 14:28N 40°38' W 074°10'0 0.0
2017-Jan-04 13:31N 40°38' W 074°10'0 0.0
2017-Jan-04 12:31N 40°38' W 074°10'0 0.0
2017-Jan-04 11:31N 40°38' W 074°10'0 0.0
2017-Jan-04 10:31N 40°38' W 074°10'0 0.0
2017-Jan-04 09:31N 40°38' W 074°10'0 0.0
2017-Jan-04 08:31N 40°38' W 074°10'0 0.0
2017-Jan-04 07:31N 40°38' W 074°10'0 0.0
2017-Jan-04 06:31N 40°38' W 074°10'0 0.0
2017-Jan-04 05:31N 40°38' W 074°10'0 0.0
2017-Jan-04 04:31N 40°38' W 074°10'0 0.0
2017-Jan-04 03:31N 40°38' W 074°10'0 0.0
2017-Jan-04 02:31N 40°38' W 074°10'0 0.0
2017-Jan-04 01:31N 40°38' W 074°10'0 0.0
2017-Jan-04 00:31N 40°38' W 074°10'  
Track history (hours):
 
Tides and Currents Weather Stations Pressure Air Temp Water Temp Dewpoint Dewpoint Depression Visibility Wind Speed Wind Dir Waves Ship Positions

Resolute

Owner: Providence Steamboat Co., PROVIDENCE, RI. More information available from US FCC via Universal Licensing System and Coast Guard Vessel Documentation Center.

Last reported at 2017-Jan-13 23:33 UTC. Time now 2017-Jan-21 13:24 UTC.
Position N 40°38' W 074°10'.

Length 30 m; draft 4 m.

Type: Tug. MMSI: 367091630.

Date/timePositionNaut miles runAvg speedWind from/ knotsBaromVisibWave heightAir tempDewpointWater temp
2017-Jan-13 23:33N 40°38' W 074°10'0 0.0
2017-Jan-13 22:33N 40°38' W 074°10'0 0.0
2017-Jan-13 21:33N 40°38' W 074°10'0 0.0
2017-Jan-13 20:33N 40°38' W 074°10'0 0.0
2017-Jan-13 19:33N 40°38' W 074°10'0 0.0
2017-Jan-13 18:33N 40°38' W 074°10'0 0.0
2017-Jan-13 17:33N 40°38' W 074°10'6 5.6
2017-Jan-13 16:32N 40°33' W 074°13'2 1.3
2017-Jan-13 15:05N 40°32' W 074°15'3 4.3
2017-Jan-13 14:18N 40°35' W 074°13'4 5.5
2017-Jan-13 13:32N 40°38' W 074°10'0 0.0
2017-Jan-13 12:33N 40°38' W 074°10'1 1.2
2017-Jan-13 11:33N 40°39' W 074°09'4 3.6
2017-Jan-13 10:33N 40°37' W 074°12'2 0.2
2017-Jan-12 22:33N 40°38' W 074°10'0 0.0
2017-Jan-12 21:33N 40°38' W 074°10'0 0.0
2017-Jan-12 20:33N 40°38' W 074°10'0 0.0
2017-Jan-12 19:32N 40°38' W 074°10'4 4.0
2017-Jan-12 18:33N 40°39' W 074°05'7 7.1
2017-Jan-12 17:33N 40°44' W 073°58'7 7.2
2017-Jan-12 16:33N 40°48' W 073°50'1 0.5
2017-Jan-12 15:33N 40°48' W 073°49'5 4.5
2017-Jan-12 14:33N 40°47' W 073°55'4 4.0
2017-Jan-12 13:33N 40°44' W 073°58'2 1.6
2017-Jan-12 12:33N 40°42' W 073°58'3 3.2
2017-Jan-12 11:33N 40°41' W 074°02'6 6.3
2017-Jan-12 10:33N 40°38' W 074°10'0 0.0
2017-Jan-12 09:33N 40°38' W 074°10'0 0.0
2017-Jan-12 08:33N 40°38' W 074°10'0 0.0
2017-Jan-12 07:32N 40°38' W 074°10'0 0.0
2017-Jan-12 06:33N 40°38' W 074°10'0 0.0
2017-Jan-12 05:33N 40°38' W 074°10'5 4.9
2017-Jan-12 04:33N 40°38' W 074°03'3 3.4
2017-Jan-12 03:33N 40°39' W 074°08'2 2.2
2017-Jan-12 02:33N 40°41' W 074°09'0 0.4
2017-Jan-12 01:33N 40°41' W 074°09'2 2.5
2017-Jan-12 00:33N 40°38' W 074°10'0 0.0
2017-Jan-11 23:33N 40°38' W 074°10'0 0.0
2017-Jan-11 22:33N 40°38' W 074°10'0 0.0
2017-Jan-11 21:33N 40°38' W 074°10'1 1.5
2017-Jan-11 20:33N 40°38' W 074°12'3 1.4
2017-Jan-11 18:31N 40°35' W 074°12'4 3.6
2017-Jan-11 17:33N 40°38' W 074°10'0 0.0
2017-Jan-11 16:33N 40°38' W 074°10'0 0.0
2017-Jan-11 15:33N 40°38' W 074°10'0 0.0
2017-Jan-11 14:33N 40°38' W 074°10'0 0.0
2017-Jan-11 13:33N 40°38' W 074°10'0 0.0
2017-Jan-11 12:33N 40°38' W 074°10'0 0.0
2017-Jan-11 11:33N 40°38' W 074°10'0 0.0
2017-Jan-11 10:33N 40°38' W 074°10'0 0.0
2017-Jan-11 09:33N 40°38' W 074°10'0 0.0
2017-Jan-11 08:33N 40°38' W 074°10'0 0.0
2017-Jan-11 07:33N 40°38' W 074°10'0 0.0
2017-Jan-11 06:33N 40°38' W 074°10'0 0.0
2017-Jan-11 05:33N 40°38' W 074°10'0 0.0
2017-Jan-11 04:33N 40°38' W 074°10'0 0.0
2017-Jan-11 03:33N 40°38' W 074°10'0 0.0
2017-Jan-11 02:33N 40°38' W 074°10'1 1.2
2017-Jan-11 01:33N 40°39' W 074°11'6 5.1
2017-Jan-11 00:29N 40°34' W 074°14'1 0.9
2017-Jan-10 23:33N 40°33' W 074°15'0 0.0
2017-Jan-10 21:32N 40°33' W 074°15'0 0.0
2017-Jan-10 20:33N 40°33' W 074°15'0 0.4
2017-Jan-10 19:32N 40°33' W 074°15'0 0.3
2017-Jan-10 18:32N 40°33' W 074°15'0 0.1
2017-Jan-10 17:32N 40°33' W 074°15'0 0.0
2017-Jan-10 16:33N 40°33' W 074°15'0 0.0
2017-Jan-10 15:33N 40°33' W 074°15'2 0.2
2017-Jan-10 06:17N 40°31' W 074°15'5 2.6
2017-Jan-10 04:26N 40°35' W 074°12'0 0.2
2017-Jan-10 03:23N 40°35' W 074°12'0 0.0
2017-Jan-10 01:08N 40°35' W 074°12'1 2.5
2017-Jan-10 00:33N 40°37' W 074°12'3 3.1
2017-Jan-09 23:33N 40°39' W 074°09'2 1.7
2017-Jan-09 22:33N 40°39' W 074°07'8 5.8
2017-Jan-09 21:06N 40°33' W 074°15'3 5.5
2017-Jan-09 20:33N 40°35' W 074°13'5 5.1
2017-Jan-09 19:33N 40°39' W 074°08'2 1.7
2017-Jan-09 18:33N 40°39' W 074°06'1 0.7
2017-Jan-09 17:34N 40°39' W 074°07'3 2.5
2017-Jan-09 16:33N 40°38' W 074°10'0 0.0
2017-Jan-09 15:33N 40°38' W 074°10'0 0.0
2017-Jan-09 14:33N 40°38' W 074°10'1 1.1
2017-Jan-09 13:33N 40°39' W 074°09'1 1.3
2017-Jan-09 12:33N 40°41' W 074°09'1 1.0
2017-Jan-09 11:33N 40°40' W 074°09'1 1.2
2017-Jan-09 10:34N 40°38' W 074°09'1 0.8
2017-Jan-09 09:33N 40°38' W 074°10'0 0.0
2017-Jan-09 08:33N 40°38' W 074°10'0 0.0
2017-Jan-09 07:33N 40°38' W 074°10'0 0.0
2017-Jan-09 06:33N 40°38' W 074°10'0 0.0
2017-Jan-09 05:33N 40°38' W 074°10'0 0.0
2017-Jan-09 04:33N 40°38' W 074°10'0 0.0
2017-Jan-09 03:33N 40°38' W 074°10'0 0.0
2017-Jan-09 02:33N 40°38' W 074°10'0 0.0
2017-Jan-09 01:33N 40°38' W 074°10'0 0.0
2017-Jan-09 00:33N 40°38' W 074°10'0 0.0
2017-Jan-08 23:31N 40°38' W 074°10'0 0.0
2017-Jan-08 22:31N 40°38' W 074°10'0 0.0
2017-Jan-08 21:31N 40°38' W 074°10'0 0.0
2017-Jan-08 20:31N 40°38' W 074°10'0 0.0
2017-Jan-08 19:28N 40°38' W 074°10'0 0.0
2017-Jan-08 18:31N 40°38' W 074°10'0 0.0
2017-Jan-08 17:31N 40°38' W 074°10'0 0.0
2017-Jan-08 16:31N 40°38' W 074°10'0 0.0
2017-Jan-08 15:31N 40°38' W 074°10'0 0.0
2017-Jan-08 14:28N 40°38' W 074°10'0 0.0
2017-Jan-08 13:31N 40°38' W 074°10'0 0.0
2017-Jan-08 12:31N 40°38' W 074°10'0 0.0
2017-Jan-08 11:31N 40°38' W 074°10'0 0.0
2017-Jan-08 10:25N 40°38' W 074°10'0 0.0
2017-Jan-08 09:28N 40°38' W 074°10'0 0.0
2017-Jan-08 06:31N 40°38' W 074°10'0 0.0
2017-Jan-08 05:31N 40°38' W 074°10'0 0.0
2017-Jan-08 04:31N 40°38' W 074°10'0 0.0
2017-Jan-08 03:31N 40°38' W 074°10'0 0.0
2017-Jan-08 02:31N 40°38' W 074°10'0 0.0
2017-Jan-08 01:31N 40°38' W 074°10'0 0.0
2017-Jan-08 00:31N 40°38' W 074°10'0 0.0
2017-Jan-07 23:31N 40°38' W 074°10'0 0.0
2017-Jan-07 22:31N 40°38' W 074°10'0 0.0
2017-Jan-07 21:31N 40°38' W 074°10'0 0.0
2017-Jan-07 20:31N 40°38' W 074°10'0 0.0
2017-Jan-07 19:31N 40°38' W 074°10'4 4.1
2017-Jan-07 18:34N 40°39' W 074°05'1 1.0
2017-Jan-07 17:32N 40°40' W 074°04'0 0.0
2017-Jan-07 16:32N 40°40' W 074°04'2 2.4
2017-Jan-07 15:33N 40°38' W 074°04'0 0.0
2017-Jan-07 14:32N 40°38' W 074°04'2 1.7
2017-Jan-07 13:33N 40°39' W 074°05'3 3.2
2017-Jan-07 12:31N 40°38' W 074°10'2 1.8
2017-Jan-07 11:33N 40°40' W 074°08'3 3.1
2017-Jan-07 10:33N 40°39' W 074°05'4 3.8
2017-Jan-07 09:28N 40°38' W 074°10'0 0.0
2017-Jan-07 08:31N 40°38' W 074°10'0 0.0
2017-Jan-07 07:28N 40°38' W 074°10'0 0.0
2017-Jan-07 06:25N 40°38' W 074°10'0 0.0
2017-Jan-07 05:28N 40°38' W 074°10'0 0.0
2017-Jan-07 04:25N 40°38' W 074°10'0 0.0
2017-Jan-07 03:28N 40°38' W 074°10'0 0.0
2017-Jan-07 02:28N 40°38' W 074°10'0 0.0
2017-Jan-07 01:28N 40°38' W 074°10'0 0.0
2017-Jan-07 00:28N 40°38' W 074°10'0 0.0
2017-Jan-06 23:28N 40°38' W 074°10'0 0.0
2017-Jan-06 22:28N 40°38' W 074°10'0 0.0
2017-Jan-06 21:28N 40°38' W 074°10'0 0.0
2017-Jan-06 20:31N 40°38' W 074°10'0 0.0
2017-Jan-06 19:31N 40°38' W 074°10'0 0.0
2017-Jan-06 18:28N 40°38' W 074°10'0 0.0
2017-Jan-06 17:31N 40°38' W 074°10'0 0.0
2017-Jan-06 16:28N 40°38' W 074°10'0 0.0
2017-Jan-06 15:28N 40°38' W 074°10'0 0.0
2017-Jan-06 14:31N 40°38' W 074°10'0 0.0
2017-Jan-06 13:31N 40°38' W 074°10'0 0.0
2017-Jan-06 12:31N 40°38' W 074°10'0 0.0
2017-Jan-06 11:31N 40°38' W 074°10'0 0.0
2017-Jan-06 10:28N 40°38' W 074°10'0 0.0
2017-Jan-06 09:31N 40°38' W 074°10'0 0.0
2017-Jan-06 08:31N 40°38' W 074°10'0 0.0
2017-Jan-06 07:31N 40°38' W 074°10'0 0.0
2017-Jan-06 06:31N 40°38' W 074°10'0 0.0
2017-Jan-06 05:31N 40°38' W 074°10'0 0.0
2017-Jan-06 04:28N 40°38' W 074°10'0 0.0
2017-Jan-06 03:31N 40°38' W 074°10'0 0.0
2017-Jan-06 02:31N 40°38' W 074°10'0 0.0
2017-Jan-06 01:31N 40°38' W 074°10'0 0.0
2017-Jan-06 00:31N 40°38' W 074°10'0 0.0
2017-Jan-05 23:31N 40°38' W 074°10'0 0.0
2017-Jan-05 22:31N 40°38' W 074°10'0 0.0
2017-Jan-05 21:28N 40°38' W 074°10'0 0.0
2017-Jan-05 20:31N 40°38' W 074°10'0 0.0
2017-Jan-05 19:16N 40°38' W 074°10'0 0.0
2017-Jan-05 18:28N 40°38' W 074°10'0 0.0
2017-Jan-05 17:31N 40°38' W 074°10'0 0.0
2017-Jan-05 16:28N 40°38' W 074°10'0 0.0
2017-Jan-05 15:31N 40°38' W 074°10'0 0.0
2017-Jan-05 14:28N 40°38' W 074°10'0 0.0
2017-Jan-05 13:28N 40°38' W 074°10'0 0.0
2017-Jan-05 12:31N 40°38' W 074°10'0 0.0
2017-Jan-05 11:31N 40°38' W 074°10'0 0.0
2017-Jan-05 10:31N 40°38' W 074°10'0 0.0
2017-Jan-05 09:31N 40°38' W 074°10'0 0.0
2017-Jan-05 08:31N 40°38' W 074°10'0 0.0
2017-Jan-05 07:31N 40°38' W 074°10'0 0.0
2017-Jan-05 06:31N 40°38' W 074°10'0 0.0
2017-Jan-05 05:31N 40°38' W 074°10'0 0.0
2017-Jan-05 04:31N 40°38' W 074°10'0 0.0
2017-Jan-05 03:31N 40°38' W 074°10'0 0.0
2017-Jan-05 02:31N 40°38' W 074°10'0 0.0
2017-Jan-05 01:31N 40°38' W 074°10'0 0.0
2017-Jan-05 00:28N 40°38' W 074°10'0 0.0
2017-Jan-04 23:31N 40°38' W 074°10'0 0.0
2017-Jan-04 22:31N 40°38' W 074°10'0 0.0
2017-Jan-04 21:31N 40°38' W 074°10'0 0.0
2017-Jan-04 20:31N 40°38' W 074°10'0 0.0
2017-Jan-04 19:28N 40°38' W 074°10'0 0.0
2017-Jan-04 18:31N 40°38' W 074°10'0 0.0
2017-Jan-04 17:28N 40°38' W 074°10'0 0.0
2017-Jan-04 16:28N 40°38' W 074°10'0 0.0
2017-Jan-04 15:28N 40°38' W 074°10'0 0.0
2017-Jan-04 14:28N 40°38' W 074°10'0 0.0
2017-Jan-04 13:31N 40°38' W 074°10'0 0.0
2017-Jan-04 12:31N 40°38' W 074°10'0 0.0
2017-Jan-04 11:31N 40°38' W 074°10'0 0.0
2017-Jan-04 10:31N 40°38' W 074°10'0 0.0
2017-Jan-04 09:31N 40°38' W 074°10'0 0.0
2017-Jan-04 08:31N 40°38' W 074°10'0 0.0
2017-Jan-04 07:31N 40°38' W 074°10'0 0.0
2017-Jan-04 06:31N 40°38' W 074°10'0 0.0
2017-Jan-04 05:31N 40°38' W 074°10'0 0.0
2017-Jan-04 04:31N 40°38' W 074°10'0 0.0
2017-Jan-04 03:31N 40°38' W 074°10'0 0.0
2017-Jan-04 02:31N 40°38' W 074°10'0 0.0
2017-Jan-04 01:31N 40°38' W 074°10'0 0.0
2017-Jan-04 00:31N 40°38' W 074°10'  

Dump ship's entire track history